Terminal Aerodrome Forecast
Issued by NWS

Home | Current Version | Previous Version | Text Only | Print | Product List | Glossary On
Versions: 1 2 3 4 5 6 7 8 9 10 11 12 13 14
000
FTUS45 KRIW 270500
TAFCPR
TAF
KCPR 270528Z 2706/2806 04006KT P6SM SCT090
     FM271400 05006KT P6SM BKN090
     FM271800 09007KT P6SM VCSH SCT050 BKN070
     FM272100 10006KT P6SM VCTS SCT050 BKN060CB
     FM272300 VRB06KT P6SM -SHRA SCT030 BKN045
     FM280500 VRB05KT P6SM VCSH BKN040=

USA.gov is the U.S. government's official web portal to all federal, state and local government web resources and services.